PWSweather.com
Personal Weather Stations
Station Observations
DEEPSOUTH
Waverley, InvercargillNZ 9810

WaverleyInvercargillNZ 9810

Lat: -46.3926834, Lon: 168.381112

Elevation: 72

Station Type: Davis VP2

http://www.deepsouthweather.co.nz/

Latest ConditionsUpdated 9:00:02 AM GMT+11:11 Sunday, Oct 26, 2014
Currently Today's Max Today's Min Today's Average
Temperature 51.6°F10.9°C 53.2°F11.8°C 47.5°F8.6°C 50.5°F10.3°C
Dew Point 41.4°F5.2°C 48.2°F9.0°C 41.4°F5.2°C 44.5°F6.9°C
Winds 5.0 mph WSW8.0 kmh WSW 11.0 mph NW17.7 kmh NW - 6.1 mph 9.8 kmh
Wind Gusts 12.0 mph19.3 kmh 23.0 mph37.0 kmh - -
Humidity 68% 93% 66% 80%
Pressure 29.88 in1011.9 mb 29.88 in1011.9 mb 29.70 in1005.8 mb -
Precipitation - 0.07 in1.8 mm - -
Hour Temp Dew Point Humidity Winds Wind Gusts Pressure Precip Precip Rate Daily Precip Total
09:00 AM 51.6°F10.9°C 41.4°F5.2°C 68% 5.0 mph WSW8.0 kmh WSW 12.0 mph19.3 kmh 29.88 in1011.9 mb 0.00 in0.0 mm 0.00 in/hr0.0 mm/hr 0.07 in1.8 mm
08:50 AM 50.7°F10.4°C 41.7°F5.4°C 71% 6.0 mph SW9.7 kmh SW 12.0 mph19.3 kmh 29.87 in1011.5 mb 0.00 in0.0 mm 0.00 in/hr0.0 mm/hr 0.07 in1.8 mm
08:40 AM 50.5°F10.3°C 42.9°F6.1°C 75% 4.0 mph SW6.4 kmh SW 8.0 mph12.9 kmh 29.87 in1011.5 mb 0.00 in0.0 mm 0.00 in/hr0.0 mm/hr 0.07 in1.8 mm
08:30 AM 50.2°F10.1°C 43.2°F6.2°C 77% 2.0 mph SW3.2 kmh SW 7.0 mph11.3 kmh 29.88 in1011.9 mb 0.00 in0.0 mm 0.00 in/hr0.0 mm/hr 0.07 in1.8 mm
08:20 AM 49.8°F9.9°C 42.9°F6.1°C 77% 2.0 mph SW3.2 kmh SW 4.0 mph6.4 kmh 29.87 in1011.5 mb 0.00 in0.0 mm 0.00 in/hr0.0 mm/hr 0.07 in1.8 mm
08:10 AM 49.6°F9.8°C 42.7°F5.9°C 77% Calm Calm -- 29.87 in1011.5 mb 0.00 in0.0 mm 0.00 in/hr0.0 mm/hr 0.07 in1.8 mm
08:00 AM 49.5°F9.7°C 42.5°F5.8°C 77% 1.0 mph SSW1.6 kmh SSW 6.0 mph9.7 kmh 29.86 in1011.2 mb 0.00 in0.0 mm 0.00 in/hr0.0 mm/hr 0.07 in1.8 mm
07:50 AM 49.6°F9.8°C 42.4°F5.8°C 76% 4.0 mph SSW6.4 kmh SSW 7.0 mph11.3 kmh 29.87 in1011.5 mb 0.00 in0.0 mm 0.00 in/hr0.0 mm/hr 0.07 in1.8 mm
07:40 AM 49.6°F9.8°C 43.1°F6.2°C 78% 4.0 mph SW6.4 kmh SW 7.0 mph11.3 kmh 29.87 in1011.5 mb 0.00 in0.0 mm 0.00 in/hr0.0 mm/hr 0.07 in1.8 mm
07:30 AM 49.5°F9.7°C 42.9°F6.1°C 78% 4.0 mph SSW6.4 kmh SSW 8.0 mph12.9 kmh 29.87 in1011.5 mb 0.00 in0.0 mm 0.00 in/hr0.0 mm/hr 0.07 in1.8 mm
07:20 AM 49.3°F9.6°C 43.0°F6.1°C 79% 3.0 mph SW4.8 kmh SW 7.0 mph11.3 kmh 29.87 in1011.5 mb 0.00 in0.0 mm 0.00 in/hr0.0 mm/hr 0.07 in1.8 mm
07:10 AM 49.1°F9.5°C 43.5°F6.4°C 81% 4.0 mph SW6.4 kmh SW 8.0 mph12.9 kmh 29.86 in1011.2 mb 0.00 in0.0 mm 0.00 in/hr0.0 mm/hr 0.07 in1.8 mm
07:00 AM 48.9°F9.4°C 43.3°F6.3°C 81% 5.0 mph SSW8.0 kmh SSW 9.0 mph14.5 kmh 29.86 in1011.2 mb 0.00 in0.0 mm 0.00 in/hr0.0 mm/hr 0.07 in1.8 mm
06:50 AM 48.6°F9.2°C 43.3°F6.3°C 82% 5.0 mph SSW8.0 kmh SSW 11.0 mph17.7 kmh 29.87 in1011.5 mb 0.00 in0.0 mm 0.00 in/hr0.0 mm/hr 0.07 in1.8 mm
06:40 AM 48.4°F9.1°C 43.5°F6.4°C 83% 6.0 mph SW9.7 kmh SW 12.0 mph19.3 kmh 29.87 in1011.5 mb 0.00 in0.0 mm 0.00 in/hr0.0 mm/hr 0.07 in1.8 mm
06:30 AM 48.4°F9.1°C 44.1°F6.7°C 85% 4.0 mph SSW6.4 kmh SSW 8.0 mph12.9 kmh 29.86 in1011.2 mb 0.00 in0.0 mm 0.00 in/hr0.0 mm/hr 0.07 in1.8 mm
06:20 AM 48.0°F8.9°C 44.0°F6.7°C 86% 4.0 mph SW6.4 kmh SW 8.0 mph12.9 kmh 29.86 in1011.2 mb 0.00 in0.0 mm 0.00 in/hr0.0 mm/hr 0.07 in1.8 mm
06:10 AM 47.7°F8.7°C 43.7°F6.5°C 86% 6.0 mph SSW9.7 kmh SSW 11.0 mph17.7 kmh 29.85 in1010.8 mb 0.01 in0.3 mm 0.00 in/hr0.0 mm/hr 0.07 in1.8 mm
06:00 AM 47.7°F8.7°C 44.3°F6.8°C 88% 6.0 mph SSW9.7 kmh SSW 11.0 mph17.7 kmh 29.85 in1010.8 mb 0.01 in0.3 mm 0.00 in/hr0.0 mm/hr 0.07 in1.8 mm
05:50 AM 47.7°F8.7°C 44.9°F7.2°C 90% 5.0 mph SSW8.0 kmh SSW 10.0 mph16.1 kmh 29.84 in1010.5 mb 0.02 in0.5 mm 0.00 in/hr0.0 mm/hr 0.07 in1.8 mm
05:40 AM 47.5°F8.6°C 45.0°F7.2°C 91% 5.0 mph SSW8.0 kmh SSW 9.0 mph14.5 kmh 29.84 in1010.5 mb 0.02 in0.5 mm 0.00 in/hr0.0 mm/hr 0.07 in1.8 mm
05:30 AM 47.7°F8.7°C 45.2°F7.3°C 91% 6.0 mph SSW9.7 kmh SSW 13.0 mph20.9 kmh 29.84 in1010.5 mb 0.02 in0.5 mm 0.00 in/hr0.0 mm/hr 0.07 in1.8 mm
05:20 AM 47.8°F8.8°C 45.3°F7.4°C 91% 7.0 mph SSW11.3 kmh SSW 13.0 mph20.9 kmh 29.83 in1010.2 mb 0.03 in0.8 mm 0.06 in/hr1.5 mm/hr 0.07 in1.8 mm
05:10 AM 48.7°F9.3°C 46.8°F8.2°C 93% 5.0 mph SW8.0 kmh SW 12.0 mph19.3 kmh 29.82 in1009.8 mb 0.02 in0.5 mm 0.00 in/hr0.0 mm/hr 0.06 in1.5 mm
05:00 AM 48.9°F9.4°C 47.0°F8.3°C 93% 5.0 mph SW8.0 kmh SW 12.0 mph19.3 kmh 29.82 in1009.8 mb 0.02 in0.5 mm 0.00 in/hr0.0 mm/hr 0.06 in1.5 mm
04:50 AM 48.9°F9.4°C 46.7°F8.2°C 92% 6.0 mph SW9.7 kmh SW 14.0 mph22.5 kmh 29.81 in1009.5 mb 0.02 in0.5 mm 0.00 in/hr0.0 mm/hr 0.06 in1.5 mm
04:40 AM 49.3°F9.6°C 47.3°F8.5°C 93% 5.0 mph WSW8.0 kmh WSW 11.0 mph17.7 kmh 29.80 in1009.1 mb 0.02 in0.5 mm 0.00 in/hr0.0 mm/hr 0.06 in1.5 mm
04:30 AM 49.5°F9.7°C 47.2°F8.4°C 92% 5.0 mph SW8.0 kmh SW 12.0 mph19.3 kmh 29.80 in1009.1 mb 0.02 in0.5 mm 0.06 in/hr1.5 mm/hr 0.06 in1.5 mm
04:20 AM 49.6°F9.8°C 47.4°F8.6°C 92% 5.0 mph SW8.0 kmh SW 17.0 mph27.4 kmh 29.79 in1008.8 mb 0.01 in0.3 mm 0.00 in/hr0.0 mm/hr 0.04 in1.0 mm
04:10 AM 49.8°F9.9°C 47.3°F8.5°C 91% 6.0 mph SW9.7 kmh SW 18.0 mph29.0 kmh 29.78 in1008.5 mb 0.02 in0.5 mm 0.00 in/hr0.0 mm/hr 0.04 in1.0 mm
04:00 AM 50.2°F10.1°C 47.7°F8.7°C 91% 6.0 mph SW9.7 kmh SW 18.0 mph29.0 kmh 29.77 in1008.1 mb 0.03 in0.8 mm 0.01 in/hr0.3 mm/hr 0.04 in1.0 mm
03:50 AM 50.4°F10.2°C 47.8°F8.8°C 91% 6.0 mph SW9.7 kmh SW 15.0 mph24.1 kmh 29.77 in1008.1 mb 0.02 in0.5 mm 0.00 in/hr0.0 mm/hr 0.03 in0.8 mm
03:40 AM 50.7°F10.4°C 48.2°F9.0°C 91% 5.0 mph SW8.0 kmh SW 10.0 mph16.1 kmh 29.77 in1008.1 mb 0.02 in0.5 mm 0.00 in/hr0.0 mm/hr 0.03 in0.8 mm
03:30 AM 51.1°F10.6°C 48.2°F9.0°C 90% 7.0 mph SW11.3 kmh SW 13.0 mph20.9 kmh 29.77 in1008.1 mb 0.02 in0.5 mm 0.00 in/hr0.0 mm/hr 0.03 in0.8 mm
03:20 AM 51.4°F10.8°C 48.0°F8.9°C 88% 5.0 mph SW8.0 kmh SW 16.0 mph25.7 kmh 29.77 in1008.1 mb 0.02 in0.5 mm 0.06 in/hr1.5 mm/hr 0.03 in0.8 mm
03:10 AM 52.0°F11.1°C 47.3°F8.5°C 84% 5.0 mph SW8.0 kmh SW 13.0 mph20.9 kmh 29.77 in1008.1 mb 0.01 in0.3 mm 0.06 in/hr1.5 mm/hr 0.02 in0.5 mm
03:00 AM 52.3°F11.3°C 45.7°F7.6°C 78% 6.0 mph SW9.7 kmh SW 15.0 mph24.1 kmh 29.77 in1008.1 mb 0.00 in0.0 mm 0.00 in/hr0.0 mm/hr 0.01 in0.3 mm
02:50 AM 52.5°F11.4°C 45.2°F7.3°C 76% 6.0 mph NW9.7 kmh NW 13.0 mph20.9 kmh 29.72 in1006.4 mb 0.00 in0.0 mm 0.00 in/hr0.0 mm/hr 0.01 in0.3 mm
02:40 AM 53.1°F11.7°C 45.0°F7.2°C 74% 7.0 mph NW11.3 kmh NW 14.0 mph22.5 kmh 29.71 in1006.1 mb 0.00 in0.0 mm 0.00 in/hr0.0 mm/hr 0.01 in0.3 mm
02:30 AM 53.2°F11.8°C 44.4°F6.9°C 72% 8.0 mph NW12.9 kmh NW 15.0 mph24.1 kmh 29.71 in1006.1 mb 0.00 in0.0 mm 0.00 in/hr0.0 mm/hr 0.01 in0.3 mm
02:20 AM 53.2°F11.8°C 44.1°F6.7°C 71% 8.0 mph NW12.9 kmh NW 17.0 mph27.4 kmh 29.71 in1006.1 mb 0.00 in0.0 mm 0.00 in/hr0.0 mm/hr 0.01 in0.3 mm
02:10 AM 53.2°F11.8°C 44.1°F6.7°C 71% 8.0 mph NW12.9 kmh NW 20.0 mph32.2 kmh 29.71 in1006.1 mb 0.00 in0.0 mm 0.00 in/hr0.0 mm/hr 0.01 in0.3 mm
02:00 AM 53.2°F11.8°C 43.7°F6.5°C 70% 10.0 mph NW16.1 kmh NW 20.0 mph32.2 kmh 29.71 in1006.1 mb 0.00 in0.0 mm 0.00 in/hr0.0 mm/hr 0.01 in0.3 mm
01:50 AM 53.1°F11.7°C 43.9°F6.6°C 71% 9.0 mph NW14.5 kmh NW 17.0 mph27.4 kmh 29.70 in1005.8 mb 0.00 in0.0 mm 0.00 in/hr0.0 mm/hr 0.01 in0.3 mm
01:40 AM 53.1°F11.7°C 43.5°F6.4°C 70% 10.0 mph NW16.1 kmh NW 18.0 mph29.0 kmh 29.70 in1005.8 mb 0.00 in0.0 mm 0.00 in/hr0.0 mm/hr 0.01 in0.3 mm
01:30 AM 52.9°F11.6°C 43.4°F6.3°C 70% 10.0 mph NW16.1 kmh NW 19.0 mph30.6 kmh 29.70 in1005.8 mb 0.00 in0.0 mm 0.00 in/hr0.0 mm/hr 0.01 in0.3 mm
01:20 AM 52.9°F11.6°C 43.4°F6.3°C 70% 9.0 mph NNW14.5 kmh NNW 17.0 mph27.4 kmh 29.71 in1006.1 mb 0.00 in0.0 mm 0.00 in/hr0.0 mm/hr 0.01 in0.3 mm
01:10 AM 52.5°F11.4°C 43.4°F6.3°C 71% 10.0 mph NNW16.1 kmh NNW 20.0 mph32.2 kmh 29.71 in1006.1 mb 0.01 in0.3 mm 0.00 in/hr0.0 mm/hr 0.01 in0.3 mm
01:00 AM 52.3°F11.3°C 43.6°F6.4°C 72% 8.0 mph NNW12.9 kmh NNW 17.0 mph27.4 kmh 29.71 in1006.1 mb 0.01 in0.3 mm 0.00 in/hr0.0 mm/hr 0.01 in0.3 mm
12:50 AM 52.2°F11.2°C 43.4°F6.3°C 72% 9.0 mph NW14.5 kmh NW 20.0 mph32.2 kmh 29.71 in1006.1 mb 0.01 in0.3 mm 0.00 in/hr0.0 mm/hr 0.01 in0.3 mm
12:40 AM 52.0°F11.1°C 43.6°F6.4°C 73% 9.0 mph NW14.5 kmh NW 20.0 mph32.2 kmh 29.72 in1006.4 mb 0.01 in0.3 mm 0.00 in/hr0.0 mm/hr 0.01 in0.3 mm
12:30 AM 51.6°F10.9°C 43.6°F6.4°C 74% 9.0 mph NW14.5 kmh NW 17.0 mph27.4 kmh 29.72 in1006.4 mb 0.01 in0.3 mm 0.00 in/hr0.0 mm/hr 0.01 in0.3 mm
12:20 AM 52.2°F11.2°C 43.8°F6.6°C 73% 9.0 mph NW14.5 kmh NW 19.0 mph30.6 kmh 29.72 in1006.4 mb 0.01 in0.3 mm 0.06 in/hr1.5 mm/hr 0.01 in0.3 mm
12:10 AM 53.1°F11.7°C 43.5°F6.4°C 70% 11.0 mph NW17.7 kmh NW 20.0 mph32.2 kmh 29.73 in1006.8 mb 0.00 in0.0 mm 0.00 in/hr0.0 mm/hr 0.00 in0.0 mm
12:00 AM 53.2°F11.8°C 42.2°F5.7°C 66% 11.0 mph NW17.7 kmh NW 23.0 mph37.0 kmh 29.73 in1006.8 mb 0.00 in0.0 mm 0.00 in/hr0.0 mm/hr 0.00 in0.0 mm